createdAt,value
2018-03-15T00:02:03.117Z,26.23
2018-03-15T00:04:28.993Z,26.80
2018-03-15T00:06:54.907Z,30.30
2018-03-15T00:09:20.765Z,25.23
2018-03-15T00:11:46.617Z,24.90
2018-03-15T00:14:12.504Z,24.47
2018-03-15T00:16:38.366Z,26.17
2018-03-15T00:19:04.220Z,24.73
2018-03-15T00:21:30.213Z,25.27
2018-03-15T00:23:56.074Z,24.60
2018-03-15T00:26:21.937Z,26.73
2018-03-15T00:28:47.868Z,29.37
2018-03-15T00:31:13.721Z,30.23
2018-03-15T00:33:39.680Z,26.37
2018-03-15T00:36:05.594Z,25.80
2018-03-15T00:38:31.440Z,24.10
2018-03-15T00:40:57.284Z,28.57
2018-03-15T00:43:23.198Z,23.77
2018-03-15T00:45:49.150Z,29.73
2018-03-15T00:48:15.004Z,24.40
2018-03-15T00:50:40.901Z,29.40
2018-03-15T00:53:06.773Z,26.90
2018-03-15T00:55:32.675Z,27.60
2018-03-15T00:57:58.664Z,25.87
2018-03-15T01:00:24.528Z,28.10
2018-03-15T01:02:50.377Z,25.23
2018-03-15T01:05:16.284Z,25.97
2018-03-15T01:07:42.150Z,29.60
2018-03-15T01:10:08.105Z,26.70
2018-03-15T01:12:34.000Z,25.27
2018-03-15T01:14:59.874Z,23.80
2018-03-15T01:17:25.736Z,32.50
2018-03-15T01:19:51.802Z,26.33
2018-03-15T01:22:17.711Z,29.83
2018-03-15T01:24:43.565Z,28.77
2018-03-15T01:27:09.472Z,27.67
2018-03-15T01:29:35.329Z,25.43
2018-03-15T01:32:01.184Z,27.57
2018-03-15T01:34:27.081Z,27.23
2018-03-15T01:36:52.945Z,24.57
2018-03-15T01:39:18.814Z,27.10
2018-03-15T01:41:44.700Z,29.83
2018-03-15T01:44:10.570Z,29.33
2018-03-15T01:46:36.433Z,29.90
2018-03-15T01:49:02.345Z,25.17
2018-03-15T01:51:28.209Z,29.17
2018-03-15T01:53:54.085Z,28.53
2018-03-15T01:56:19.986Z,27.37
2018-03-15T01:58:45.857Z,29.87
2018-03-15T02:01:11.751Z,28.73
2018-03-15T02:03:37.668Z,33.53
2018-03-15T02:06:03.532Z,27.07
2018-03-15T02:08:29.377Z,33.53
2018-03-15T02:10:55.438Z,32.93
2018-03-15T02:13:21.314Z,36.10
2018-03-15T02:15:47.156Z,31.07
2018-03-15T02:18:13.376Z,31.07
2018-03-15T02:20:39.393Z,30.87
2018-03-15T02:23:05.332Z,30.03
2018-03-15T02:25:31.225Z,30.33
2018-03-15T02:27:57.079Z,29.50
2018-03-15T02:30:22.951Z,28.83
2018-03-15T02:32:48.862Z,30.80
2018-03-15T02:35:14.808Z,31.60
2018-03-15T02:37:40.660Z,30.33
2018-03-15T02:40:06.738Z,33.07
2018-03-15T02:42:32.620Z,31.17
2018-03-15T02:44:58.478Z,27.27
2018-03-15T02:47:24.812Z,30.43
2018-03-15T02:49:50.685Z,29.37
2018-03-15T02:52:16.541Z,30.80
2018-03-15T02:54:42.430Z,31.13
2018-03-15T02:57:08.294Z,27.90
2018-03-15T02:59:34.294Z,29.40
2018-03-15T03:02:00.208Z,29.93
2018-03-15T03:04:26.070Z,35.87
2018-03-15T03:06:51.930Z,31.23
2018-03-15T03:09:17.870Z,31.73
2018-03-15T03:11:43.884Z,29.97
2018-03-15T03:14:09.763Z,33.13
2018-03-15T03:16:35.981Z,32.13
2018-03-15T03:19:01.880Z,30.97
2018-03-15T03:21:27.774Z,32.53
2018-03-15T03:23:53.835Z,31.97
2018-03-15T03:26:19.709Z,29.73
2018-03-15T03:28:45.550Z,31.93
2018-03-15T03:31:11.522Z,33.63
2018-03-15T03:33:37.376Z,30.03
2018-03-15T03:36:03.392Z,33.90
2018-03-15T03:38:29.473Z,28.30
2018-03-15T03:40:55.348Z,33.83
2018-03-15T03:43:21.192Z,30.50
2018-03-15T03:45:47.093Z,32.43
2018-03-15T03:48:13.920Z,32.90
2018-03-15T03:50:39.794Z,35.03
2018-03-15T03:53:05.697Z,32.70
2018-03-15T03:55:31.572Z,29.67
2018-03-15T03:57:57.437Z,31.97
2018-03-15T04:00:23.504Z,32.50
2018-03-15T04:02:49.375Z,30.23
2018-03-15T04:05:15.221Z,35.93
2018-03-15T04:07:41.126Z,30.47
2018-03-15T04:10:07.006Z,29.67
2018-03-15T04:12:33.098Z,30.30
2018-03-15T04:14:59.008Z,31.70
2018-03-15T04:17:24.864Z,32.60
2018-03-15T04:19:50.721Z,29.50
2018-03-15T04:22:16.624Z,31.87
2018-03-15T04:24:42.630Z,30.27
2018-03-15T04:27:08.513Z,31.77
2018-03-15T04:29:34.433Z,31.93
2018-03-15T04:32:00.291Z,30.60
2018-03-15T04:34:26.155Z,32.23
2018-03-15T04:36:52.202Z,28.97
2018-03-15T04:39:18.064Z,33.67
2018-03-15T04:41:43.916Z,30.33
2018-03-15T04:44:09.837Z,30.10
2018-03-15T04:46:35.693Z,33.23
2018-03-15T04:49:01.686Z,31.97
2018-03-15T04:51:27.584Z,32.23
2018-03-15T04:53:53.436Z,34.67
2018-03-15T04:56:19.281Z,33.47
2018-03-15T04:58:45.360Z,34.47
2018-03-15T05:01:11.374Z,33.13
2018-03-15T05:03:37.233Z,32.23
2018-03-15T05:06:03.142Z,33.80
2018-03-15T05:08:29.002Z,35.33
2018-03-15T05:10:54.852Z,32.43
2018-03-15T05:13:21.101Z,32.67
2018-03-15T05:15:46.969Z,33.57
2018-03-15T05:18:12.854Z,34.67
2018-03-15T05:20:38.733Z,39.53
2018-03-15T05:23:04.589Z,41.33
2018-03-15T05:25:30.593Z,37.73
2018-03-15T05:27:56.516Z,37.03
2018-03-15T05:30:22.368Z,40.30
2018-03-15T05:32:48.221Z,37.40
2018-03-15T05:35:14.126Z,41.40
2018-03-15T05:37:40.125Z,41.73
2018-03-15T05:40:06.001Z,40.77
2018-03-15T05:42:31.897Z,40.47
2018-03-15T05:44:57.758Z,40.00
2018-03-15T05:47:23.625Z,39.27
2018-03-15T05:49:49.685Z,41.67
2018-03-15T05:52:15.542Z,36.87
2018-03-15T05:54:41.393Z,39.80
2018-03-15T05:57:07.686Z,43.00
2018-03-15T05:59:33.556Z,40.17
2018-03-15T06:01:59.560Z,41.47
2018-03-15T06:04:25.473Z,43.90
2018-03-15T06:06:51.339Z,43.20
2018-03-15T06:09:17.194Z,44.77
2018-03-15T06:11:43.089Z,44.17
2018-03-15T06:14:09.089Z,38.63
2018-03-15T06:16:34.949Z,42.83
2018-03-15T06:19:00.835Z,45.87
2018-03-15T06:21:26.692Z,43.07
2018-03-15T06:23:52.562Z,44.33
2018-03-15T06:26:18.529Z,48.17
2018-03-15T06:28:44.418Z,44.77
2018-03-15T06:31:10.282Z,45.83
2018-03-15T06:33:36.177Z,48.20
2018-03-15T06:36:02.041Z,46.27
2018-03-15T06:38:27.898Z,53.20
2018-03-15T06:40:53.806Z,49.93
2018-03-15T06:43:19.672Z,48.87
2018-03-15T06:45:45.528Z,53.30
2018-03-15T06:48:11.421Z,56.37
2018-03-15T06:50:37.475Z,54.20
2018-03-15T06:53:03.401Z,56.77
2018-03-15T06:55:29.335Z,58.30
2018-03-15T06:57:55.194Z,51.57
2018-03-15T07:00:21.058Z,61.90
2018-03-15T07:02:46.977Z,55.77
2018-03-15T07:05:12.847Z,58.63
2018-03-15T07:07:38.704Z,60.27
2018-03-15T07:10:04.597Z,60.37
2018-03-15T07:12:30.465Z,60.60
2018-03-15T07:14:56.333Z,60.47
2018-03-15T07:17:22.228Z,50.53
2018-03-15T07:19:48.104Z,55.27
2018-03-15T07:22:13.969Z,57.63
2018-03-15T07:24:39.881Z,56.77
2018-03-15T07:27:05.736Z,55.53
2018-03-15T07:29:31.741Z,54.40
2018-03-15T07:31:57.661Z,53.70
2018-03-15T07:34:23.510Z,47.63
2018-03-15T07:36:49.462Z,52.50
2018-03-15T07:39:15.344Z,47.03
2018-03-15T07:41:41.225Z,46.10
2018-03-15T07:44:07.096Z,45.23
2018-03-15T07:46:32.984Z,48.47
2018-03-15T07:48:58.853Z,50.77
2018-03-15T07:51:24.708Z,48.17
2018-03-15T07:53:50.598Z,38.83
2018-03-15T07:56:16.457Z,49.57
2018-03-15T07:58:42.300Z,43.90
2018-03-15T08:01:08.219Z,42.90
2018-03-15T08:03:34.067Z,45.03
2018-03-15T08:05:59.982Z,45.53
2018-03-15T08:08:25.873Z,43.93
2018-03-15T08:10:51.732Z,46.80
2018-03-15T08:13:17.590Z,50.83
2018-03-15T08:15:43.484Z,49.43
2018-03-15T08:18:09.357Z,44.57
2018-03-15T08:20:35.229Z,47.37
2018-03-15T08:23:01.142Z,41.10
2018-03-15T08:25:27.003Z,48.10
2018-03-15T08:27:52.880Z,43.97
2018-03-15T08:30:18.864Z,40.93
2018-03-15T08:32:44.708Z,42.27
2018-03-15T08:35:10.560Z,41.83
2018-03-15T08:37:36.488Z,39.17
2018-03-15T08:40:02.357Z,42.37
2018-03-15T08:42:28.321Z,45.43
2018-03-15T08:44:54.221Z,43.37
2018-03-15T08:47:20.084Z,36.67
2018-03-15T08:49:45.943Z,45.30
2018-03-15T08:52:11.837Z,38.33
2018-03-15T08:54:37.701Z,37.83
2018-03-15T08:57:03.558Z,39.20
2018-03-15T08:59:29.453Z,38.17
2018-03-15T09:01:55.333Z,40.70
2018-03-15T09:04:21.219Z,34.53
2018-03-15T09:06:47.120Z,39.40
2018-03-15T09:09:13.040Z,35.73
2018-03-15T09:11:38.843Z,43.23
2018-03-15T09:14:04.736Z,39.77
2018-03-15T09:16:30.638Z,35.73
2018-03-15T09:18:56.521Z,41.50
2018-03-15T09:21:22.433Z,41.17
2018-03-15T09:23:48.301Z,38.50
2018-03-15T09:26:14.170Z,37.20
2018-03-15T09:28:40.068Z,38.90
2018-03-15T09:31:05.991Z,36.23
2018-03-15T09:33:31.877Z,38.60
2018-03-15T09:35:57.800Z,36.33
2018-03-15T09:38:23.687Z,36.60
2018-03-15T09:40:49.564Z,33.00
2018-03-15T09:43:15.481Z,35.53
2018-03-15T09:45:41.379Z,38.27
2018-03-15T09:48:07.250Z,32.53
2018-03-15T09:50:33.175Z,37.47
2018-03-15T09:52:59.040Z,31.70
2018-03-15T09:55:24.905Z,34.80
2018-03-15T09:57:50.813Z,38.10
2018-03-15T10:00:16.693Z,35.43
2018-03-15T10:02:42.577Z,29.27
2018-03-15T10:05:08.492Z,30.00
2018-03-15T10:07:34.377Z,38.67
2018-03-15T10:10:00.253Z,36.47
2018-03-15T10:12:26.248Z,35.63
2018-03-15T10:14:52.120Z,33.70
2018-03-15T10:17:18.001Z,37.73
2018-03-15T10:19:43.918Z,34.27
2018-03-15T10:22:09.838Z,34.53
2018-03-15T10:24:35.698Z,29.70
2018-03-15T10:27:01.609Z,30.47
2018-03-15T10:29:27.485Z,35.17
2018-03-15T10:31:54.373Z,29.20
2018-03-15T10:34:20.326Z,33.83
2018-03-15T10:36:46.222Z,27.90
2018-03-15T10:39:12.123Z,29.50
2018-03-15T10:41:38.158Z,35.07
2018-03-15T10:44:04.054Z,32.23
2018-03-15T10:46:29.944Z,29.57
2018-03-15T10:48:55.872Z,30.63
2018-03-15T10:51:21.753Z,24.00
2018-03-15T10:53:47.629Z,30.53
2018-03-15T10:56:13.567Z,26.77
2018-03-15T10:58:39.432Z,23.53
2018-03-15T11:01:05.316Z,26.00
2018-03-15T11:03:37.326Z,27.60
2018-03-15T11:06:09.325Z,24.50
2018-03-15T11:08:35.234Z,29.97
2018-03-15T11:11:09.935Z,30.33
2018-03-15T11:13:35.834Z,30.30
2018-03-15T11:16:01.704Z,29.50
2018-03-15T11:18:27.616Z,27.53
2018-03-15T11:20:53.501Z,28.77
2018-03-15T11:23:19.385Z,24.33
2018-03-15T11:25:45.321Z,27.67
2018-03-15T11:28:11.192Z,25.77
2018-03-15T11:30:37.064Z,26.40
2018-03-15T11:33:03.002Z,23.60
2018-03-15T11:35:28.869Z,25.27
2018-03-15T11:37:54.754Z,22.93
2018-03-15T11:40:20.705Z,23.93
2018-03-15T11:42:46.568Z,25.37
2018-03-15T11:45:12.443Z,24.23
2018-03-15T11:47:38.356Z,27.20
2018-03-15T11:50:04.228Z,24.00
2018-03-15T11:52:30.097Z,26.53
2018-03-15T11:54:56.021Z,23.77
2018-03-15T11:57:21.881Z,22.93
2018-03-15T11:59:48.842Z,21.83
2018-03-15T12:02:14.765Z,23.30
2018-03-15T12:04:40.645Z,24.07
2018-03-15T12:07:06.530Z,20.43
2018-03-15T12:09:32.921Z,23.87
2018-03-15T12:11:58.789Z,25.80
2018-03-15T12:14:24.670Z,22.17
2018-03-15T12:16:50.587Z,23.50
2018-03-15T12:19:16.457Z,27.73
2018-03-15T12:21:42.316Z,21.97
2018-03-15T12:24:08.267Z,23.00
2018-03-15T12:26:34.120Z,27.00
2018-03-15T12:28:59.989Z,23.97
2018-03-15T12:31:25.897Z,28.63
2018-03-15T12:33:51.836Z,25.03
2018-03-15T12:36:17.689Z,23.73
2018-03-15T12:38:43.918Z,24.17
2018-03-15T12:41:09.783Z,23.00
2018-03-15T12:43:35.647Z,22.23
2018-03-15T12:46:01.662Z,23.67
2018-03-15T12:48:27.543Z,24.43
2018-03-15T12:50:53.398Z,22.93
2018-03-15T12:53:19.300Z,24.67
2018-03-15T12:55:45.156Z,23.53
2018-03-15T12:58:11.104Z,22.00
2018-03-15T13:00:37.008Z,28.90
2018-03-15T13:03:02.898Z,25.10
2018-03-15T13:05:28.756Z,21.87
2018-03-15T13:07:54.705Z,20.13
2018-03-15T13:10:20.654Z,23.60
2018-03-15T13:12:46.532Z,20.30
2018-03-15T13:15:12.441Z,23.17
2018-03-15T13:17:38.313Z,21.70
2018-03-15T13:20:04.181Z,22.20
2018-03-15T13:22:30.186Z,18.17
2018-03-15T13:24:56.048Z,22.87
2018-03-15T13:27:21.913Z,25.17
2018-03-15T13:29:47.815Z,25.43
2018-03-15T13:32:13.677Z,21.60
2018-03-15T13:34:39.642Z,20.20
2018-03-15T13:37:05.561Z,19.30
2018-03-15T13:39:31.422Z,22.27
2018-03-15T13:41:57.309Z,22.83
2018-03-15T13:44:23.593Z,23.97
2018-03-15T13:46:49.557Z,23.00
2018-03-15T13:49:15.400Z,24.37
2018-03-15T13:51:41.337Z,26.23
2018-03-15T13:54:07.217Z,23.73
2018-03-15T13:56:33.085Z,25.87
2018-03-15T13:58:59.088Z,23.30
2018-03-15T14:01:24.952Z,24.50
2018-03-15T14:03:52.137Z,24.00
2018-03-15T14:06:18.296Z,24.30
2018-03-15T14:08:44.170Z,21.43
2018-03-15T14:11:10.133Z,19.77
2018-03-15T14:13:36.051Z,22.17
2018-03-15T14:16:01.942Z,21.00
2018-03-15T14:18:27.793Z,21.23
2018-03-15T14:20:53.853Z,20.63
2018-03-15T14:23:19.981Z,21.53
2018-03-15T14:25:45.833Z,18.97
2018-03-15T14:28:11.740Z,18.50
2018-03-15T14:30:37.612Z,22.77
2018-03-15T14:33:03.486Z,21.00
2018-03-15T14:35:29.470Z,19.37
2018-03-15T14:37:55.321Z,20.67
2018-03-15T14:40:21.182Z,19.70
2018-03-15T14:42:47.102Z,21.53
2018-03-15T14:45:13.010Z,20.60
2018-03-15T14:47:38.925Z,19.03
2018-03-15T14:50:04.922Z,19.03
2018-03-15T14:52:30.785Z,21.43
2018-03-15T14:54:56.645Z,23.50
2018-03-15T14:57:22.536Z,24.53
2018-03-15T14:59:48.472Z,23.73
2018-03-15T15:02:14.346Z,20.03
2018-03-15T15:04:40.245Z,22.30
2018-03-15T15:07:06.101Z,19.53
2018-03-15T15:09:31.972Z,24.20
2018-03-15T15:11:57.961Z,20.47
2018-03-15T15:14:23.890Z,20.73
2018-03-15T15:16:49.763Z,21.63
2018-03-15T15:19:15.669Z,22.03
2018-03-15T15:21:41.586Z,24.20
2018-03-15T15:24:07.545Z,23.17
2018-03-15T15:26:33.450Z,21.67
2018-03-15T15:28:59.321Z,22.07
2018-03-15T15:31:25.190Z,25.23
2018-03-15T15:33:51.093Z,23.70
2018-03-15T15:36:17.049Z,23.00
2018-03-15T15:38:42.922Z,22.37
2018-03-15T15:41:08.821Z,19.33
2018-03-15T15:43:34.697Z,21.03
2018-03-15T15:46:00.553Z,20.87
2018-03-15T15:48:26.560Z,19.40
2018-03-15T15:50:52.465Z,21.47
2018-03-15T15:53:18.324Z,20.10
2018-03-15T15:55:44.221Z,22.80
2018-03-15T15:58:10.106Z,21.63
2018-03-15T16:00:36.061Z,23.10
2018-03-15T16:03:02.010Z,26.37
2018-03-15T16:05:27.885Z,21.33
2018-03-15T16:07:53.742Z,17.93
2018-03-15T16:10:19.665Z,19.60
2018-03-15T16:12:45.625Z,21.00
2018-03-15T16:15:11.485Z,23.00
2018-03-15T16:17:37.476Z,20.83
2018-03-15T16:20:03.352Z,22.20
2018-03-15T16:22:29.209Z,19.67
2018-03-15T16:24:55.185Z,25.10
2018-03-15T16:27:21.032Z,23.27
2018-03-15T16:29:46.875Z,24.10
2018-03-15T16:32:12.819Z,21.60
2018-03-15T16:34:38.749Z,24.00
2018-03-15T16:37:04.613Z,23.73
2018-03-15T16:39:30.505Z,22.77
2018-03-15T16:41:56.376Z,24.17
2018-03-15T16:44:22.238Z,24.77
2018-03-15T16:46:48.150Z,22.07
2018-03-15T16:49:14.009Z,22.83
2018-03-15T16:51:39.877Z,21.40
2018-03-15T16:54:05.775Z,22.37
2018-03-15T16:56:31.658Z,24.27
2018-03-15T16:58:57.516Z,25.70
2018-03-15T17:01:23.437Z,19.80
2018-03-15T17:03:49.366Z,20.07
2018-03-15T17:06:15.224Z,28.20
2018-03-15T17:08:41.183Z,24.73
2018-03-15T17:11:07.032Z,23.80
2018-03-15T17:13:32.904Z,23.03
2018-03-15T17:15:58.801Z,27.20
2018-03-15T17:18:24.686Z,21.60
2018-03-15T17:20:50.554Z,26.37
2018-03-15T17:23:16.465Z,22.07
2018-03-15T17:25:42.373Z,24.17
2018-03-15T17:28:08.243Z,22.80
2018-03-15T17:30:34.162Z,22.23
2018-03-15T17:33:00.019Z,24.67
2018-03-15T17:35:25.874Z,24.90
2018-03-15T17:37:51.768Z,26.73
2018-03-15T17:40:17.722Z,27.07
2018-03-15T17:42:43.632Z,24.97
2018-03-15T17:45:09.510Z,27.23
2018-03-15T17:47:35.368Z,27.50
2018-03-15T17:50:01.230Z,26.17
2018-03-15T17:52:27.305Z,26.97
2018-03-15T17:54:53.207Z,27.93
2018-03-15T17:57:19.069Z,25.63
2018-03-15T17:59:44.965Z,27.03
2018-03-15T18:02:10.933Z,28.87
2018-03-15T18:04:36.814Z,28.47
2018-03-15T18:07:02.728Z,29.33
2018-03-15T18:09:28.597Z,31.17
2018-03-15T18:11:54.589Z,29.90
2018-03-15T18:14:20.514Z,28.57
2018-03-15T18:16:46.378Z,30.13
2018-03-15T18:19:12.229Z,36.70
2018-03-15T18:21:38.134Z,32.80
2018-03-15T18:24:04.000Z,33.00
2018-03-15T18:26:30.005Z,31.27
2018-03-15T18:28:55.920Z,29.70
2018-03-15T18:31:21.776Z,29.80
2018-03-15T18:33:47.633Z,32.13
2018-03-15T18:36:13.530Z,31.60
2018-03-15T18:38:39.497Z,34.20
2018-03-15T18:41:05.426Z,34.07
2018-03-15T18:43:31.321Z,34.87
2018-03-15T18:45:57.176Z,35.23
2018-03-15T18:48:23.038Z,35.27
2018-03-15T18:50:48.943Z,38.67
2018-03-15T18:53:15.809Z,40.70
2018-03-15T18:55:41.693Z,36.87
2018-03-15T18:58:07.914Z,34.20
2018-03-15T19:00:33.819Z,41.57
2018-03-15T19:02:59.754Z,40.83
2018-03-15T19:05:25.720Z,42.97
2018-03-15T19:07:51.584Z,41.23
2018-03-15T19:10:17.449Z,43.73
2018-03-15T19:12:43.421Z,46.37
2018-03-15T19:15:09.284Z,44.40
2018-03-15T19:17:35.142Z,45.27
2018-03-15T19:20:01.201Z,48.13
2018-03-15T19:22:27.069Z,46.67
2018-03-15T19:24:52.949Z,45.27
2018-03-15T19:27:19.305Z,45.40
2018-03-15T19:29:45.168Z,49.97
2018-03-15T19:32:11.026Z,43.43
2018-03-15T19:34:36.930Z,46.77
2018-03-15T19:37:02.796Z,50.57
2018-03-15T19:39:28.741Z,45.00
2018-03-15T19:41:54.686Z,51.27
2018-03-15T19:44:20.549Z,52.87
2018-03-15T19:46:47.091Z,49.90
2018-03-15T19:49:13.111Z,52.00
2018-03-15T19:51:39.032Z,47.47
2018-03-15T19:54:04.896Z,50.70
2018-03-15T19:56:30.902Z,50.47
2018-03-15T19:58:56.777Z,53.10
2018-03-15T20:01:22.650Z,46.37
2018-03-15T20:03:48.704Z,50.17
2018-03-15T20:06:14.577Z,50.20
2018-03-15T20:08:40.453Z,54.97
2018-03-15T20:11:06.357Z,50.27
2018-03-15T20:13:32.224Z,50.20
2018-03-15T20:15:58.152Z,54.83
2018-03-15T20:18:24.067Z,53.83
2018-03-15T20:20:49.929Z,53.63
2018-03-15T20:23:21.884Z,49.10
2018-03-15T20:25:47.794Z,56.37
2018-03-15T20:31:18.313Z,49.97
2018-03-15T20:33:50.161Z,44.07
2018-03-15T20:36:16.021Z,47.87
2018-03-15T20:38:42.065Z,47.60
2018-03-15T20:41:14.189Z,48.63
2018-03-15T20:43:40.670Z,52.90
2018-03-15T20:46:13.032Z,46.20
2018-03-15T20:48:45.370Z,52.47
2018-03-15T20:51:11.402Z,52.30
2018-03-15T20:53:37.305Z,51.87
2018-03-15T20:56:03.218Z,52.47
2018-03-15T20:58:29.074Z,48.70
2018-03-15T21:00:55.061Z,54.80
2018-03-15T21:03:21.010Z,57.33
2018-03-15T21:05:47.038Z,52.87
2018-03-15T21:08:12.935Z,53.17
2018-03-15T21:10:38.793Z,52.97
2018-03-15T21:13:04.641Z,54.60
2018-03-15T21:15:30.527Z,46.60
2018-03-15T21:17:56.415Z,53.30
2018-03-15T21:20:22.329Z,48.93
2018-03-15T21:22:48.224Z,58.23
2018-03-15T21:25:14.098Z,56.60
2018-03-15T21:27:39.958Z,60.27
2018-03-15T21:30:05.869Z,56.80
2018-03-15T21:32:31.804Z,59.53
2018-03-15T21:34:57.652Z,55.80
2018-03-15T21:37:23.614Z,55.33
2018-03-15T21:39:49.472Z,59.57
2018-03-15T21:42:15.724Z,56.83
2018-03-15T21:44:41.638Z,64.10
2018-03-15T21:47:07.502Z,55.93
2018-03-15T21:49:33.429Z,58.83
2018-03-15T21:51:59.390Z,61.93
2018-03-15T21:54:25.253Z,59.03
2018-03-15T21:56:51.093Z,61.47
2018-03-15T21:59:16.985Z,54.23
2018-03-15T22:01:42.844Z,57.80
2018-03-15T22:04:08.692Z,59.13
2018-03-15T22:06:34.585Z,56.03
2018-03-15T22:09:00.445Z,63.40
2018-03-15T22:11:26.319Z,56.10
2018-03-15T22:13:52.269Z,55.97
2018-03-15T22:16:18.177Z,59.50
2018-03-15T22:18:44.046Z,59.43
2018-03-15T22:21:09.949Z,59.67
2018-03-15T22:23:35.809Z,56.83
2018-03-15T22:26:01.668Z,61.93
2018-03-15T22:28:27.577Z,62.93
2018-03-15T22:30:53.473Z,66.00
2018-03-15T22:33:19.345Z,58.27
2018-03-15T22:35:45.282Z,63.00
2018-03-15T22:38:11.132Z,65.83
2018-03-15T22:40:36.992Z,56.70
2018-03-15T22:43:02.895Z,61.63
2018-03-15T22:45:28.759Z,62.97
2018-03-15T22:47:54.618Z,69.30
2018-03-15T22:50:20.505Z,64.43
2018-03-15T22:52:46.430Z,66.00
2018-03-15T22:55:12.286Z,67.23
2018-03-15T22:57:38.194Z,62.63
2018-03-15T23:00:04.055Z,62.53
2018-03-15T23:02:29.905Z,64.80
2018-03-15T23:04:55.801Z,65.57
2018-03-15T23:07:21.664Z,63.00
2018-03-15T23:09:47.516Z,66.80
2018-03-15T23:12:13.409Z,67.97
2018-03-15T23:14:39.350Z,66.63
2018-03-15T23:17:05.211Z,66.57
2018-03-15T23:19:31.118Z,66.63
2018-03-15T23:21:56.977Z,67.60
2018-03-15T23:24:22.830Z,69.70
2018-03-15T23:26:48.727Z,74.90
2018-03-15T23:29:14.588Z,74.83
2018-03-15T23:31:40.444Z,74.07
2018-03-15T23:34:06.333Z,65.77
2018-03-15T23:36:32.202Z,62.80
2018-03-15T23:38:58.069Z,72.07
2018-03-15T23:41:23.976Z,69.50
2018-03-15T23:43:49.833Z,73.10
2018-03-15T23:46:15.730Z,71.00
2018-03-15T23:48:41.704Z,77.80
2018-03-15T23:51:07.620Z,74.60
2018-03-15T23:53:33.534Z,69.90
2018-03-15T23:55:59.428Z,68.17
2018-03-15T23:58:25.285Z,75.70
